sensor_id;sensor_type;location;lat;lon;timestamp;P1;durP1;ratioP1;P2;durP2;ratioP2
9667;SDS011;4872;48.316;10.650;2023-02-13T05:07:23;31.57;;;17.90;;
9667;SDS011;4872;48.316;10.650;2023-02-13T05:09:50;31.63;;;17.43;;
9667;SDS011;4872;48.316;10.650;2023-02-13T05:12:16;30.40;;;18.03;;
9667;SDS011;4872;48.316;10.650;2023-02-13T05:14:43;28.90;;;17.87;;
9667;SDS011;4872;48.316;10.650;2023-02-13T05:17:10;31.70;;;17.97;;
9667;SDS011;4872;48.316;10.650;2023-02-13T05:19:40;28.07;;;17.47;;
9667;SDS011;4872;48.316;10.650;2023-02-13T05:22:07;25.43;;;16.90;;
9667;SDS011;4872;48.316;10.650;2023-02-13T05:25:05;31.50;;;17.57;;
9667;SDS011;4872;48.316;10.650;2023-02-13T05:27:32;30.80;;;18.03;;
9667;SDS011;4872;48.316;10.650;2023-02-13T05:29:58;28.83;;;18.63;;
9667;SDS011;4872;48.316;10.650;2023-02-13T05:32:24;31.77;;;18.27;;
9667;SDS011;4872;48.316;10.650;2023-02-13T05:34:51;28.73;;;18.53;;
9667;SDS011;4872;48.316;10.650;2023-02-13T05:37:18;30.23;;;17.07;;
9667;SDS011;4872;48.316;10.650;2023-02-13T05:39:44;23.63;;;14.57;;
9667;SDS011;4872;48.316;10.650;2023-02-13T05:42:13;24.20;;;15.80;;
9667;SDS011;4872;48.316;10.650;2023-02-13T05:44:39;24.40;;;16.20;;
9667;SDS011;4872;48.316;10.650;2023-02-13T05:47:06;24.40;;;14.90;;
9667;SDS011;4872;48.316;10.650;2023-02-13T05:49:33;26.60;;;14.87;;
9667;SDS011;4872;48.316;10.650;2023-02-13T05:52:00;26.07;;;16.30;;
9667;SDS011;4872;48.316;10.650;2023-02-13T05:54:26;25.23;;;15.50;;
9667;SDS011;4872;48.316;10.650;2023-02-13T05:56:53;26.80;;;15.83;;
9667;SDS011;4872;48.316;10.650;2023-02-13T05:59:21;25.03;;;15.03;;
9667;SDS011;4872;48.316;10.650;2023-02-13T06:01:48;26.50;;;15.97;;
9667;SDS011;4872;48.316;10.650;2023-02-13T06:04:15;25.60;;;15.97;;
9667;SDS011;4872;48.316;10.650;2023-02-13T06:06:41;28.47;;;16.07;;
9667;SDS011;4872;48.316;10.650;2023-02-13T06:09:09;25.53;;;17.00;;
9667;SDS011;4872;48.316;10.650;2023-02-13T06:11:36;28.73;;;17.73;;
9667;SDS011;4872;48.316;10.650;2023-02-13T06:14:03;27.23;;;17.03;;
9667;SDS011;4872;48.316;10.650;2023-02-13T06:16:31;30.57;;;17.47;;
9667;SDS011;4872;48.316;10.650;2023-02-13T06:18:58;29.87;;;17.63;;
9667;SDS011;4872;48.316;10.650;2023-02-13T06:21:25;28.87;;;17.57;;
9667;SDS011;4872;48.316;10.650;2023-02-13T06:23:52;33.87;;;18.47;;
9667;SDS011;4872;48.316;10.650;2023-02-13T06:26:19;30.00;;;17.60;;
9667;SDS011;4872;48.316;10.650;2023-02-13T06:28:45;33.70;;;18.07;;
9667;SDS011;4872;48.316;10.650;2023-02-13T06:31:13;37.50;;;19.63;;
9667;SDS011;4872;48.316;10.650;2023-02-13T06:33:41;32.17;;;18.97;;
9667;SDS011;4872;48.316;10.650;2023-02-13T06:36:08;42.57;;;20.70;;
9667;SDS011;4872;48.316;10.650;2023-02-13T06:38:35;34.60;;;21.00;;
9667;SDS011;4872;48.316;10.650;2023-02-13T06:41:01;42.63;;;22.97;;
9667;SDS011;4872;48.316;10.650;2023-02-13T06:43:28;38.70;;;21.00;;
9667;SDS011;4872;48.316;10.650;2023-02-13T06:45:55;33.17;;;21.20;;
9667;SDS011;4872;48.316;10.650;2023-02-13T06:48:22;41.57;;;20.77;;
9667;SDS011;4872;48.316;10.650;2023-02-13T06:50:50;31.63;;;18.10;;
9667;SDS011;4872;48.316;10.650;2023-02-13T06:53:17;39.23;;;19.40;;
9667;SDS011;4872;48.316;10.650;2023-02-13T06:55:48;33.13;;;19.47;;
9667;SDS011;4872;48.316;10.650;2023-02-13T06:58:16;37.97;;;19.33;;
9667;SDS011;4872;48.316;10.650;2023-02-13T07:00:43;38.03;;;20.67;;
9667;SDS011;4872;48.316;10.650;2023-02-13T07:03:10;39.73;;;21.17;;
9667;SDS011;4872;48.316;10.650;2023-02-13T07:05:38;37.77;;;22.07;;
9667;SDS011;4872;48.316;10.650;2023-02-13T07:08:07;36.77;;;20.93;;
9667;SDS011;4872;48.316;10.650;2023-02-13T07:10:35;37.87;;;20.87;;
9667;SDS011;4872;48.316;10.650;2023-02-13T07:13:02;33.77;;;19.57;;
9667;SDS011;4872;48.316;10.650;2023-02-13T07:15:29;36.97;;;20.90;;
9667;SDS011;4872;48.316;10.650;2023-02-13T07:17:56;37.63;;;19.37;;
9667;SDS011;4872;48.316;10.650;2023-02-13T07:20:23;39.50;;;21.73;;
9667;SDS011;4872;48.316;10.650;2023-02-13T07:22:51;34.80;;;20.47;;
9667;SDS011;4872;48.316;10.650;2023-02-13T07:25:19;33.73;;;19.53;;
9667;SDS011;4872;48.316;10.650;2023-02-13T07:27:46;32.93;;;19.57;;
9667;SDS011;4872;48.316;10.650;2023-02-13T07:30:12;35.20;;;19.90;;
9667;SDS011;4872;48.316;10.650;2023-02-13T07:32:39;34.80;;;17.50;;
9667;SDS011;4872;48.316;10.650;2023-02-13T07:35:06;36.93;;;19.30;;
9667;SDS011;4872;48.316;10.650;2023-02-13T07:37:33;34.33;;;18.43;;
9667;SDS011;4872;48.316;10.650;2023-02-13T07:40:00;32.17;;;18.73;;
9667;SDS011;4872;48.316;10.650;2023-02-13T07:42:29;33.60;;;18.37;;
9667;SDS011;4872;48.316;10.650;2023-02-13T07:44:58;33.17;;;17.30;;
9667;SDS011;4872;48.316;10.650;2023-02-13T07:47:25;31.83;;;17.20;;
9667;SDS011;4872;48.316;10.650;2023-02-13T07:49:51;33.70;;;17.30;;
9667;SDS011;4872;48.316;10.650;2023-02-13T07:52:19;30.87;;;17.30;;
9667;SDS011;4872;48.316;10.650;2023-02-13T07:54:45;36.67;;;18.50;;
9667;SDS011;4872;48.316;10.650;2023-02-13T07:57:12;32.00;;;18.43;;
9667;SDS011;4872;48.316;10.650;2023-02-13T07:59:40;32.73;;;19.37;;
9667;SDS011;4872;48.316;10.650;2023-02-13T08:02:09;31.07;;;19.37;;
9667;SDS011;4872;48.316;10.650;2023-02-13T08:04:38;30.97;;;17.23;;
9667;SDS011;4872;48.316;10.650;2023-02-13T08:07:04;33.33;;;18.87;;
9667;SDS011;4872;48.316;10.650;2023-02-13T08:09:31;32.30;;;18.27;;
9667;SDS011;4872;48.316;10.650;2023-02-13T08:12:15;27.37;;;17.03;;
9667;SDS011;4872;48.316;10.650;2023-02-13T08:14:44;27.27;;;16.73;;
9667;SDS011;4872;48.316;10.650;2023-02-13T08:17:11;31.87;;;18.43;;
9667;SDS011;4872;48.316;10.650;2023-02-13T08:19:37;32.60;;;18.00;;
9667;SDS011;4872;48.316;10.650;2023-02-13T08:22:04;26.57;;;16.43;;
9667;SDS011;4872;48.316;10.650;2023-02-13T08:24:31;24.57;;;16.13;;
9667;SDS011;4872;48.316;10.650;2023-02-13T08:26:58;28.43;;;16.60;;
9667;SDS011;4872;48.316;10.650;2023-02-13T08:29:25;27.07;;;16.93;;
9667;SDS011;4872;48.316;10.650;2023-02-13T08:31:53;23.47;;;14.07;;
9667;SDS011;4872;48.316;10.650;2023-02-13T08:34:20;21.93;;;14.77;;
9667;SDS011;4872;48.316;10.650;2023-02-13T08:36:46;24.73;;;15.53;;
9667;SDS011;4872;48.316;10.650;2023-02-13T08:39:13;24.80;;;14.80;;
9667;SDS011;4872;48.316;10.650;2023-02-13T08:41:40;27.80;;;17.50;;
9667;SDS011;4872;48.316;10.650;2023-02-13T08:44:08;27.43;;;15.90;;
9667;SDS011;4872;48.316;10.650;2023-02-13T08:46:35;28.27;;;16.43;;
9667;SDS011;4872;48.316;10.650;2023-02-13T08:49:03;24.17;;;15.43;;
9667;SDS011;4872;48.316;10.650;2023-02-13T08:51:30;25.30;;;15.43;;
9667;SDS011;4872;48.316;10.650;2023-02-13T08:53:57;24.90;;;15.50;;
9667;SDS011;4872;48.316;10.650;2023-02-13T08:56:27;26.53;;;16.10;;
9667;SDS011;4872;48.316;10.650;2023-02-13T08:58:53;28.80;;;18.23;;
9667;SDS011;4872;48.316;10.650;2023-02-13T09:01:20;27.03;;;16.23;;
9667;SDS011;4872;48.316;10.650;2023-02-13T09:03:48;25.53;;;14.97;;
9667;SDS011;4872;48.316;10.650;2023-02-13T09:06:16;28.37;;;16.43;;
9667;SDS011;4872;48.316;10.650;2023-02-13T09:08:43;26.50;;;15.93;;
9667;SDS011;4872;48.316;10.650;2023-02-13T09:11:09;26.80;;;16.63;;
9667;SDS011;4872;48.316;10.650;2023-02-13T09:13:36;26.20;;;16.50;;
9667;SDS011;4872;48.316;10.650;2023-02-13T09:16:05;26.87;;;16.33;;
9667;SDS011;4872;48.316;10.650;2023-02-13T09:18:32;26.67;;;15.37;;
9667;SDS011;4872;48.316;10.650;2023-02-13T09:21:01;24.73;;;15.63;;
9667;SDS011;4872;48.316;10.650;2023-02-13T09:23:31;26.53;;;15.53;;
9667;SDS011;4872;48.316;10.650;2023-02-13T09:25:59;25.50;;;15.67;;
9667;SDS011;4872;48.316;10.650;2023-02-13T09:28:27;29.93;;;16.90;;
9667;SDS011;4872;48.316;10.650;2023-02-13T09:30:54;24.13;;;15.33;;
9667;SDS011;4872;48.316;10.650;2023-02-13T09:33:21;28.00;;;16.73;;
9667;SDS011;4872;48.316;10.650;2023-02-13T09:35:48;25.90;;;15.10;;
9667;SDS011;4872;48.316;10.650;2023-02-13T09:38:15;23.77;;;15.60;;
9667;SDS011;4872;48.316;10.650;2023-02-13T09:40:45;24.80;;;15.40;;
9667;SDS011;4872;48.316;10.650;2023-02-13T09:43:16;22.50;;;15.10;;
9667;SDS011;4872;48.316;10.650;2023-02-13T09:45:52;25.20;;;16.17;;
9667;SDS011;4872;48.316;10.650;2023-02-13T09:48:29;27.23;;;16.23;;
9667;SDS011;4872;48.316;10.650;2023-02-13T09:50:57;27.30;;;16.23;;
9667;SDS011;4872;48.316;10.650;2023-02-13T09:53:25;25.50;;;15.70;;
9667;SDS011;4872;48.316;10.650;2023-02-13T09:55:57;29.33;;;16.67;;
9667;SDS011;4872;48.316;10.650;2023-02-13T09:58:35;24.13;;;15.17;;
9667;SDS011;4872;48.316;10.650;2023-02-13T10:01:12;26.33;;;15.40;;
9667;SDS011;4872;48.316;10.650;2023-02-13T10:03:50;24.67;;;15.87;;
9667;SDS011;4872;48.316;10.650;2023-02-13T10:06:28;27.23;;;16.00;;
9667;SDS011;4872;48.316;10.650;2023-02-13T10:09:03;24.50;;;15.40;;
9667;SDS011;4872;48.316;10.650;2023-02-13T10:11:48;24.73;;;15.43;;
9667;SDS011;4872;48.316;10.650;2023-02-13T10:14:31;30.00;;;17.50;;
9667;SDS011;4872;48.316;10.650;2023-02-13T10:17:04;26.97;;;16.13;;
9667;SDS011;4872;48.316;10.650;2023-02-13T10:19:34;27.53;;;16.93;;
9667;SDS011;4872;48.316;10.650;2023-02-13T10:22:06;27.47;;;15.93;;
9667;SDS011;4872;48.316;10.650;2023-02-13T10:24:39;25.37;;;16.00;;
9667;SDS011;4872;48.316;10.650;2023-02-13T10:27:16;27.67;;;17.47;;
9667;SDS011;4872;48.316;10.650;2023-02-13T10:29:47;27.20;;;17.90;;
9667;SDS011;4872;48.316;10.650;2023-02-13T10:32:34;26.07;;;17.73;;
9667;SDS011;4872;48.316;10.650;2023-02-13T10:35:14;25.27;;;16.33;;
9667;SDS011;4872;48.316;10.650;2023-02-13T10:37:44;27.27;;;16.70;;
9667;SDS011;4872;48.316;10.650;2023-02-13T10:40:15;26.23;;;16.40;;
9667;SDS011;4872;48.316;10.650;2023-02-13T10:42:44;48.20;;;28.23;;
9667;SDS011;4872;48.316;10.650;2023-02-13T10:45:20;34.73;;;19.60;;
9667;SDS011;4872;48.316;10.650;2023-02-13T10:48:05;31.07;;;19.53;;
9667;SDS011;4872;48.316;10.650;2023-02-13T10:50:41;30.40;;;18.23;;
9667;SDS011;4872;48.316;10.650;2023-02-13T10:53:14;28.27;;;16.53;;
9667;SDS011;4872;48.316;10.650;2023-02-13T10:58:53;27.90;;;17.17;;
9667;SDS011;4872;48.316;10.650;2023-02-13T11:01:31;26.73;;;16.73;;
9667;SDS011;4872;48.316;10.650;2023-02-13T11:04:04;27.87;;;15.83;;
9667;SDS011;4872;48.316;10.650;2023-02-13T11:06:33;27.70;;;17.23;;
9667;SDS011;4872;48.316;10.650;2023-02-13T11:09:03;28.10;;;17.07;;
9667;SDS011;4872;48.316;10.650;2023-02-13T11:11:31;27.37;;;15.60;;
9667;SDS011;4872;48.316;10.650;2023-02-13T11:14:10;26.53;;;16.33;;
9667;SDS011;4872;48.316;10.650;2023-02-13T11:16:44;27.00;;;17.87;;
9667;SDS011;4872;48.316;10.650;2023-02-13T11:19:16;27.20;;;16.43;;
9667;SDS011;4872;48.316;10.650;2023-02-13T11:21:45;28.23;;;17.50;;
9667;SDS011;4872;48.316;10.650;2023-02-13T11:24:18;29.40;;;18.07;;
9667;SDS011;4872;48.316;10.650;2023-02-13T11:26:52;26.70;;;16.83;;
9667;SDS011;4872;48.316;10.650;2023-02-13T11:29:24;28.93;;;17.97;;
9667;SDS011;4872;48.316;10.650;2023-02-13T11:32:06;25.07;;;16.60;;
9667;SDS011;4872;48.316;10.650;2023-02-13T11:34:43;27.17;;;18.10;;
9667;SDS011;4872;48.316;10.650;2023-02-13T11:37:15;26.37;;;17.30;;
9667;SDS011;4872;48.316;10.650;2023-02-13T11:39:48;27.37;;;17.03;;
9667;SDS011;4872;48.316;10.650;2023-02-13T11:42:18;27.57;;;15.67;;
9667;SDS011;4872;48.316;10.650;2023-02-13T11:44:51;28.53;;;16.63;;
9667;SDS011;4872;48.316;10.650;2023-02-13T11:47:29;25.17;;;15.87;;
9667;SDS011;4872;48.316;10.650;2023-02-13T11:50:00;23.97;;;16.27;;
9667;SDS011;4872;48.316;10.650;2023-02-13T11:52:28;23.97;;;16.23;;
9667;SDS011;4872;48.316;10.650;2023-02-13T11:54:58;25.80;;;17.20;;
9667;SDS011;4872;48.316;10.650;2023-02-13T11:57:27;25.23;;;15.07;;
9667;SDS011;4872;48.316;10.650;2023-02-13T11:59:57;24.73;;;15.13;;
9667;SDS011;4872;48.316;10.650;2023-02-13T12:02:26;22.83;;;15.57;;
9667;SDS011;4872;48.316;10.650;2023-02-13T12:04:54;23.33;;;14.90;;
9667;SDS011;4872;48.316;10.650;2023-02-13T12:07:42;24.17;;;16.10;;
9667;SDS011;4872;48.316;10.650;2023-02-13T12:10:15;22.27;;;15.37;;
9667;SDS011;4872;48.316;10.650;2023-02-13T12:12:50;22.63;;;15.37;;
9667;SDS011;4872;48.316;10.650;2023-02-13T12:15:21;26.00;;;15.73;;
9667;SDS011;4872;48.316;10.650;2023-02-13T12:17:53;25.73;;;15.43;;
9667;SDS011;4872;48.316;10.650;2023-02-13T12:20:28;25.27;;;16.03;;
9667;SDS011;4872;48.316;10.650;2023-02-13T12:23:01;26.83;;;16.10;;
9667;SDS011;4872;48.316;10.650;2023-02-13T12:25:34;25.17;;;16.67;;
9667;SDS011;4872;48.316;10.650;2023-02-13T12:28:12;24.37;;;16.37;;
9667;SDS011;4872;48.316;10.650;2023-02-13T12:30:53;25.80;;;16.63;;
9667;SDS011;4872;48.316;10.650;2023-02-13T12:33:49;26.10;;;17.10;;
9667;SDS011;4872;48.316;10.650;2023-02-13T12:36:40;27.50;;;16.50;;
9667;SDS011;4872;48.316;10.650;2023-02-13T12:39:29;27.53;;;16.83;;
9667;SDS011;4872;48.316;10.650;2023-02-13T12:42:01;25.20;;;17.27;;
9667;SDS011;4872;48.316;10.650;2023-02-13T12:47:28;27.00;;;17.00;;
9667;SDS011;4872;48.316;10.650;2023-02-13T12:50:07;28.77;;;17.90;;
9667;SDS011;4872;48.316;10.650;2023-02-13T12:52:55;28.27;;;16.70;;
9667;SDS011;4872;48.316;10.650;2023-02-13T12:55:45;28.47;;;17.27;;
9667;SDS011;4872;48.316;10.650;2023-02-13T12:58:30;28.33;;;17.53;;
9667;SDS011;4872;48.316;10.650;2023-02-13T13:01:11;30.27;;;18.00;;
9667;SDS011;4872;48.316;10.650;2023-02-13T13:03:48;30.07;;;17.10;;
9667;SDS011;4872;48.316;10.650;2023-02-13T13:06:35;29.33;;;19.00;;
9667;SDS011;4872;48.316;10.650;2023-02-13T13:09:14;29.90;;;16.97;;
9667;SDS011;4872;48.316;10.650;2023-02-13T13:11:58;29.30;;;18.13;;
9667;SDS011;4872;48.316;10.650;2023-02-13T13:14:35;29.67;;;18.67;;
9667;SDS011;4872;48.316;10.650;2023-02-13T13:17:10;30.50;;;18.60;;
9667;SDS011;4872;48.316;10.650;2023-02-13T13:19:47;29.73;;;17.73;;
9667;SDS011;4872;48.316;10.650;2023-02-13T13:22:20;26.93;;;17.00;;
9667;SDS011;4872;48.316;10.650;2023-02-13T13:24:57;33.40;;;18.83;;
9667;SDS011;4872;48.316;10.650;2023-02-13T13:27:30;27.70;;;17.30;;
9667;SDS011;4872;48.316;10.650;2023-02-13T13:30:01;26.53;;;17.10;;
9667;SDS011;4872;48.316;10.650;2023-02-13T13:32:30;28.27;;;18.20;;
9667;SDS011;4872;48.316;10.650;2023-02-13T13:35:00;28.43;;;17.40;;
9667;SDS011;4872;48.316;10.650;2023-02-13T13:37:30;28.37;;;17.37;;
9667;SDS011;4872;48.316;10.650;2023-02-13T13:40:22;31.50;;;19.10;;
9667;SDS011;4872;48.316;10.650;2023-02-13T13:42:54;29.80;;;19.87;;
9667;SDS011;4872;48.316;10.650;2023-02-13T13:45:29;30.70;;;18.27;;
9667;SDS011;4872;48.316;10.650;2023-02-13T13:48:13;33.73;;;20.90;;
9667;SDS011;4872;48.316;10.650;2023-02-13T13:50:57;29.07;;;18.90;;
9667;SDS011;4872;48.316;10.650;2023-02-13T13:53:24;28.47;;;18.13;;
9667;SDS011;4872;48.316;10.650;2023-02-13T13:55:58;27.43;;;17.87;;
9667;SDS011;4872;48.316;10.650;2023-02-13T13:58:33;27.33;;;16.37;;
9667;SDS011;4872;48.316;10.650;2023-02-13T14:01:16;23.20;;;15.90;;
9667;SDS011;4872;48.316;10.650;2023-02-13T14:03:51;25.73;;;17.07;;
9667;SDS011;4872;48.316;10.650;2023-02-13T14:06:21;27.60;;;17.00;;
9667;SDS011;4872;48.316;10.650;2023-02-13T14:09:00;30.50;;;18.03;;
9667;SDS011;4872;48.316;10.650;2023-02-13T14:11:38;27.47;;;17.60;;
9667;SDS011;4872;48.316;10.650;2023-02-13T14:23:12;28.27;;;17.93;;
9667;SDS011;4872;48.316;10.650;2023-02-13T14:25:44;27.80;;;17.50;;
9667;SDS011;4872;48.316;10.650;2023-02-13T14:28:17;27.37;;;17.80;;
9667;SDS011;4872;48.316;10.650;2023-02-13T14:30:49;27.83;;;16.83;;
9667;SDS011;4872;48.316;10.650;2023-02-13T14:33:21;25.33;;;17.00;;
9667;SDS011;4872;48.316;10.650;2023-02-13T14:35:58;26.73;;;18.50;;
9667;SDS011;4872;48.316;10.650;2023-02-13T14:38:28;26.93;;;18.13;;
9667;SDS011;4872;48.316;10.650;2023-02-13T14:40:55;29.80;;;17.30;;
9667;SDS011;4872;48.316;10.650;2023-02-13T14:43:36;30.97;;;18.83;;
9667;SDS011;4872;48.316;10.650;2023-02-13T14:46:21;32.67;;;20.70;;
9667;SDS011;4872;48.316;10.650;2023-02-13T14:48:55;31.50;;;20.10;;
9667;SDS011;4872;48.316;10.650;2023-02-13T14:51:25;34.63;;;22.03;;
9667;SDS011;4872;48.316;10.650;2023-02-13T14:54:02;42.97;;;27.67;;
9667;SDS011;4872;48.316;10.650;2023-02-13T14:56:32;33.00;;;19.90;;
9667;SDS011;4872;48.316;10.650;2023-02-13T14:59:00;33.73;;;19.53;;
9667;SDS011;4872;48.316;10.650;2023-02-13T15:01:36;32.97;;;20.83;;
9667;SDS011;4872;48.316;10.650;2023-02-13T15:04:11;31.43;;;20.63;;
9667;SDS011;4872;48.316;10.650;2023-02-13T15:06:42;33.33;;;20.60;;
9667;SDS011;4872;48.316;10.650;2023-02-13T15:09:16;30.37;;;20.53;;
9667;SDS011;4872;48.316;10.650;2023-02-13T15:11:49;33.70;;;21.40;;
9667;SDS011;4872;48.316;10.650;2023-02-13T15:14:20;33.13;;;20.37;;
9667;SDS011;4872;48.316;10.650;2023-02-13T15:16:51;32.27;;;20.60;;
9667;SDS011;4872;48.316;10.650;2023-02-13T15:19:20;30.70;;;18.97;;
9667;SDS011;4872;48.316;10.650;2023-02-13T15:21:50;32.97;;;19.93;;
9667;SDS011;4872;48.316;10.650;2023-02-13T15:24:20;31.93;;;20.33;;
9667;SDS011;4872;48.316;10.650;2023-02-13T15:26:49;33.20;;;20.23;;
9667;SDS011;4872;48.316;10.650;2023-02-13T15:29:19;30.10;;;19.43;;
9667;SDS011;4872;48.316;10.650;2023-02-13T15:31:46;32.00;;;19.10;;
9667;SDS011;4872;48.316;10.650;2023-02-13T15:34:19;30.97;;;19.67;;
9667;SDS011;4872;48.316;10.650;2023-02-13T15:36:48;33.70;;;21.57;;
9667;SDS011;4872;48.316;10.650;2023-02-13T15:39:15;30.27;;;18.90;;
9667;SDS011;4872;48.316;10.650;2023-02-13T15:41:46;31.50;;;20.70;;
9667;SDS011;4872;48.316;10.650;2023-02-13T15:44:16;31.17;;;19.53;;
9667;SDS011;4872;48.316;10.650;2023-02-13T15:46:45;30.37;;;19.23;;
9667;SDS011;4872;48.316;10.650;2023-02-13T15:49:14;32.63;;;20.27;;
9667;SDS011;4872;48.316;10.650;2023-02-13T15:51:43;33.17;;;19.13;;
9667;SDS011;4872;48.316;10.650;2023-02-13T15:54:24;36.50;;;19.70;;
9667;SDS011;4872;48.316;10.650;2023-02-13T15:56:54;31.97;;;20.60;;
9667;SDS011;4872;48.316;10.650;2023-02-13T15:59:23;31.37;;;21.03;;
9667;SDS011;4872;48.316;10.650;2023-02-13T16:01:53;30.70;;;19.97;;
9667;SDS011;4872;48.316;10.650;2023-02-13T16:04:21;29.00;;;17.93;;
9667;SDS011;4872;48.316;10.650;2023-02-13T16:06:49;31.37;;;19.40;;
9667;SDS011;4872;48.316;10.650;2023-02-13T16:09:22;34.43;;;22.63;;
9667;SDS011;4872;48.316;10.650;2023-02-13T16:11:54;32.37;;;20.07;;
9667;SDS011;4872;48.316;10.650;2023-02-13T16:14:25;34.97;;;22.07;;
9667;SDS011;4872;48.316;10.650;2023-02-13T16:16:53;33.93;;;21.17;;
9667;SDS011;4872;48.316;10.650;2023-02-13T16:19:27;34.43;;;21.53;;
9667;SDS011;4872;48.316;10.650;2023-02-13T16:21:58;37.83;;;22.17;;
9667;SDS011;4872;48.316;10.650;2023-02-13T16:24:28;36.50;;;21.43;;
9667;SDS011;4872;48.316;10.650;2023-02-13T16:26:57;30.77;;;19.80;;
9667;SDS011;4872;48.316;10.650;2023-02-13T16:29:24;76.27;;;39.87;;
9667;SDS011;4872;48.316;10.650;2023-02-13T16:31:52;50.97;;;30.40;;
9667;SDS011;4872;48.316;10.650;2023-02-13T16:34:29;42.17;;;29.07;;
9667;SDS011;4872;48.316;10.650;2023-02-13T16:39:53;35.63;;;22.13;;
9667;SDS011;4872;48.316;10.650;2023-02-13T16:42:21;38.97;;;21.57;;
9667;SDS011;4872;48.316;10.650;2023-02-13T16:44:48;35.53;;;22.87;;
9667;SDS011;4872;48.316;10.650;2023-02-13T16:47:18;33.80;;;21.67;;
9667;SDS011;4872;48.316;10.650;2023-02-13T16:49:49;35.10;;;23.30;;
9667;SDS011;4872;48.316;10.650;2023-02-13T16:52:19;39.67;;;24.13;;
9667;SDS011;4872;48.316;10.650;2023-02-13T16:54:51;35.27;;;22.53;;
9667;SDS011;4872;48.316;10.650;2023-02-13T16:57:22;38.63;;;22.77;;
9667;SDS011;4872;48.316;10.650;2023-02-13T16:59:55;37.00;;;22.40;;
9667;SDS011;4872;48.316;10.650;2023-02-13T17:02:32;44.60;;;23.43;;
9667;SDS011;4872;48.316;10.650;2023-02-13T17:05:12;42.33;;;25.97;;
9667;SDS011;4872;48.316;10.650;2023-02-13T17:07:44;56.50;;;34.73;;
9667;SDS011;4872;48.316;10.650;2023-02-13T17:10:18;38.10;;;24.07;;
9667;SDS011;4872;48.316;10.650;2023-02-13T17:12:48;43.60;;;25.63;;
9667;SDS011;4872;48.316;10.650;2023-02-13T17:15:16;44.67;;;26.30;;
9667;SDS011;4872;48.316;10.650;2023-02-13T17:17:45;46.97;;;27.50;;
9667;SDS011;4872;48.316;10.650;2023-02-13T17:20:15;40.53;;;25.67;;
9667;SDS011;4872;48.316;10.650;2023-02-13T17:22:43;44.33;;;25.53;;
9667;SDS011;4872;48.316;10.650;2023-02-13T17:25:14;40.43;;;24.37;;
9667;SDS011;4872;48.316;10.650;2023-02-13T17:27:42;42.57;;;27.23;;
9667;SDS011;4872;48.316;10.650;2023-02-13T17:30:13;42.27;;;25.87;;
9667;SDS011;4872;48.316;10.650;2023-02-13T17:32:40;43.63;;;25.47;;
9667;SDS011;4872;48.316;10.650;2023-02-13T17:35:08;41.77;;;27.50;;
9667;SDS011;4872;48.316;10.650;2023-02-13T17:37:36;44.87;;;25.57;;
9667;SDS011;4872;48.316;10.650;2023-02-13T17:40:05;43.20;;;25.70;;
9667;SDS011;4872;48.316;10.650;2023-02-13T17:42:33;47.37;;;25.97;;
9667;SDS011;4872;48.316;10.650;2023-02-13T17:45:01;49.80;;;26.97;;
9667;SDS011;4872;48.316;10.650;2023-02-13T17:47:29;49.40;;;27.07;;
9667;SDS011;4872;48.316;10.650;2023-02-13T17:49:56;46.70;;;28.17;;
9667;SDS011;4872;48.316;10.650;2023-02-13T17:52:24;46.07;;;26.20;;
9667;SDS011;4872;48.316;10.650;2023-02-13T17:54:52;50.87;;;27.83;;
9667;SDS011;4872;48.316;10.650;2023-02-13T17:57:19;41.90;;;25.00;;
9667;SDS011;4872;48.316;10.650;2023-02-13T17:59:46;44.53;;;26.97;;
9667;SDS011;4872;48.316;10.650;2023-02-13T18:02:14;46.43;;;27.27;;
9667;SDS011;4872;48.316;10.650;2023-02-13T18:04:44;53.47;;;30.43;;
9667;SDS011;4872;48.316;10.650;2023-02-13T18:07:11;44.37;;;26.87;;
9667;SDS011;4872;48.316;10.650;2023-02-13T18:09:39;47.40;;;27.03;;
9667;SDS011;4872;48.316;10.650;2023-02-13T18:12:07;47.73;;;27.57;;
9667;SDS011;4872;48.316;10.650;2023-02-13T18:14:38;48.43;;;29.80;;
9667;SDS011;4872;48.316;10.650;2023-02-13T18:17:05;46.57;;;29.77;;
9667;SDS011;4872;48.316;10.650;2023-02-13T18:19:31;51.37;;;28.67;;
9667;SDS011;4872;48.316;10.650;2023-02-13T18:22:00;44.53;;;27.60;;
9667;SDS011;4872;48.316;10.650;2023-02-13T18:24:27;41.60;;;24.57;;
9667;SDS011;4872;48.316;10.650;2023-02-13T18:26:54;42.83;;;26.10;;
9667;SDS011;4872;48.316;10.650;2023-02-13T18:29:21;42.87;;;24.43;;
9667;SDS011;4872;48.316;10.650;2023-02-13T18:31:48;47.97;;;25.70;;
9667;SDS011;4872;48.316;10.650;2023-02-13T18:34:16;51.23;;;28.03;;
9667;SDS011;4872;48.316;10.650;2023-02-13T18:36:43;47.43;;;26.87;;
9667;SDS011;4872;48.316;10.650;2023-02-13T18:39:11;44.43;;;24.40;;
9667;SDS011;4872;48.316;10.650;2023-02-13T18:41:38;41.80;;;25.43;;
9667;SDS011;4872;48.316;10.650;2023-02-13T18:44:05;47.93;;;26.57;;
9667;SDS011;4872;48.316;10.650;2023-02-13T18:46:32;50.40;;;26.53;;
9667;SDS011;4872;48.316;10.650;2023-02-13T18:48:59;43.90;;;25.43;;
9667;SDS011;4872;48.316;10.650;2023-02-13T18:51:25;48.37;;;25.53;;
9667;SDS011;4872;48.316;10.650;2023-02-13T18:53:52;51.13;;;25.47;;
9667;SDS011;4872;48.316;10.650;2023-02-13T18:56:20;50.67;;;29.37;;
9667;SDS011;4872;48.316;10.650;2023-02-13T18:58:49;41.87;;;25.83;;
9667;SDS011;4872;48.316;10.650;2023-02-13T19:01:16;42.23;;;23.73;;
9667;SDS011;4872;48.316;10.650;2023-02-13T19:03:44;47.37;;;24.20;;
9667;SDS011;4872;48.316;10.650;2023-02-13T19:06:13;47.30;;;25.50;;
9667;SDS011;4872;48.316;10.650;2023-02-13T19:08:42;43.20;;;26.03;;
9667;SDS011;4872;48.316;10.650;2023-02-13T19:11:10;41.87;;;25.13;;
9667;SDS011;4872;48.316;10.650;2023-02-13T19:13:40;41.43;;;25.13;;
9667;SDS011;4872;48.316;10.650;2023-02-13T19:16:09;45.53;;;25.70;;
9667;SDS011;4872;48.316;10.650;2023-02-13T19:18:39;44.97;;;25.27;;
9667;SDS011;4872;48.316;10.650;2023-02-13T19:21:07;42.30;;;25.83;;
9667;SDS011;4872;48.316;10.650;2023-02-13T19:23:34;41.57;;;25.50;;
9667;SDS011;4872;48.316;10.650;2023-02-13T19:26:05;40.80;;;25.30;;
9667;SDS011;4872;48.316;10.650;2023-02-13T19:28:32;42.97;;;25.73;;
9667;SDS011;4872;48.316;10.650;2023-02-13T19:31:04;43.33;;;25.07;;
9667;SDS011;4872;48.316;10.650;2023-02-13T19:33:31;44.57;;;27.47;;
9667;SDS011;4872;48.316;10.650;2023-02-13T19:35:59;45.93;;;26.83;;
9667;SDS011;4872;48.316;10.650;2023-02-13T19:38:27;45.13;;;26.83;;
9667;SDS011;4872;48.316;10.650;2023-02-13T19:40:54;43.57;;;24.77;;
9667;SDS011;4872;48.316;10.650;2023-02-13T19:43:21;41.53;;;25.13;;
9667;SDS011;4872;48.316;10.650;2023-02-13T19:45:48;46.63;;;24.67;;
9667;SDS011;4872;48.316;10.650;2023-02-13T19:48:17;37.73;;;23.20;;
9667;SDS011;4872;48.316;10.650;2023-02-13T19:50:43;37.13;;;22.77;;
9667;SDS011;4872;48.316;10.650;2023-02-13T19:53:10;39.00;;;24.23;;
9667;SDS011;4872;48.316;10.650;2023-02-13T19:55:37;40.60;;;23.27;;
9667;SDS011;4872;48.316;10.650;2023-02-13T19:58:04;34.43;;;22.07;;
9667;SDS011;4872;48.316;10.650;2023-02-13T20:00:31;36.37;;;23.20;;
9667;SDS011;4872;48.316;10.650;2023-02-13T20:03:00;38.47;;;24.90;;
9667;SDS011;4872;48.316;10.650;2023-02-13T20:05:30;42.67;;;23.70;;
9667;SDS011;4872;48.316;10.650;2023-02-13T20:07:57;44.73;;;22.77;;
9667;SDS011;4872;48.316;10.650;2023-02-13T20:10:24;39.20;;;23.97;;
9667;SDS011;4872;48.316;10.650;2023-02-13T20:12:51;44.33;;;22.33;;
9667;SDS011;4872;48.316;10.650;2023-02-13T20:15:19;45.37;;;25.07;;
9667;SDS011;4872;48.316;10.650;2023-02-13T20:17:46;40.27;;;24.00;;